Time;durP1;ratioP1;P1;durP2;ratioP2;P2;SDS_P1;SDS_P2;PMS_P1;PMS_P2;Temp;Humidity;BMP_temperature;BMP_pressure;BME280_temperature;BME280_humidity;BME280_pressure;Samples;Min_cycle;Max_cycle;Signal;HPM_P1;HPM_P2
2023/05/20 00:02:00;;;;;;;;;;;23.50;53.00;;;;;;5057516;28;19936;-70
2023/05/20 00:04:26;;;;;;;;;;;23.50;52.90;;;;;;5057393;28;19912;-70
2023/05/20 00:06:51;;;;;;;;;;;23.50;52.90;;;;;;5057521;28;20003;-70
2023/05/20 00:09:17;;;;;;;;;;;23.50;53.20;;;;;;5057442;28;19994;-70
2023/05/20 00:11:42;;;;;;;;;;;23.50;55.20;;;;;;5056246;28;20021;-70
2023/05/20 00:14:08;;;;;;;;;;;23.40;55.30;;;;;;5057667;28;20331;-70
2023/05/20 00:16:33;;;;;;;;;;;23.30;53.60;;;;;;5057397;28;19911;-70
2023/05/20 00:18:59;;;;;;;;;;;23.30;54.40;;;;;;5056174;28;20003;-70
2023/05/20 00:21:25;;;;;;;;;;;23.30;53.90;;;;;;5057370;28;19904;-70
2023/05/20 00:23:50;;;;;;;;;;;23.30;54.00;;;;;;5057124;28;19913;-71
2023/05/20 00:26:16;;;;;;;;;;;23.20;54.60;;;;;;5056490;28;19909;-70
2023/05/20 00:28:41;;;;;;;;;;;23.20;54.70;;;;;;5057321;28;19940;-70
2023/05/20 00:31:07;;;;;;;;;;;23.20;54.30;;;;;;5056991;28;19916;-70
2023/05/20 00:33:33;;;;;;;;;;;23.20;54.20;;;;;;5056962;28;20363;-70
2023/05/20 00:35:59;;;;;;;;;;;23.20;53.60;;;;;;5057052;28;19974;-70
2023/05/20 00:38:24;;;;;;;;;;;23.20;53.80;;;;;;5055413;28;20347;-71
2023/05/20 00:40:50;;;;;;;;;;;23.20;53.90;;;;;;5055419;28;19992;-71
2023/05/20 00:43:15;;;;;;;;;;;23.20;54.60;;;;;;5056620;28;20015;-71
2023/05/20 00:45:41;;;;;;;;;;;23.20;54.00;;;;;;5057065;28;20255;-70
2023/05/20 00:48:07;;;;;;;;;;;23.20;53.70;;;;;;5056803;28;19904;-70
2023/05/20 00:50:32;;;;;;;;;;;23.20;54.50;;;;;;5056594;28;19958;-70
2023/05/20 00:52:58;;;;;;;;;;;23.20;53.80;;;;;;5056720;28;19909;-70
2023/05/20 00:55:24;;;;;;;;;;;23.20;54.30;;;;;;5055110;28;20584;-70
2023/05/20 00:57:50;;;;;;;;;;;23.20;54.00;;;;;;5056500;28;20377;-70
2023/05/20 01:00:15;;;;;;;;;;;23.20;53.80;;;;;;5056421;28;19959;-70
2023/05/20 01:02:41;;;;;;;;;;;23.20;53.70;;;;;;5056509;28;19904;-70
2023/05/20 01:05:06;;;;;;;;;;;23.30;53.40;;;;;;5056203;28;20000;-70
2023/05/20 01:07:32;;;;;;;;;;;23.30;53.50;;;;;;5056427;28;20291;-70
2023/05/20 01:09:58;;;;;;;;;;;23.30;53.40;;;;;;5056080;28;19987;-70
2023/05/20 01:12:29;;;;;;;;;;;23.30;53.30;;;;;;5055129;28;19904;-70
2023/05/20 01:14:55;;;;;;;;;;;23.30;53.10;;;;;;5056221;28;19904;-70
2023/05/20 01:17:25;;;;;;;;;;;23.40;53.10;;;;;;5056543;28;19905;-70
2023/05/20 01:19:52;;;;;;;;;;;23.40;53.30;;;;;;5056282;28;19955;-70
2023/05/20 01:22:18;;;;;;;;;;;23.40;53.90;;;;;;5056163;28;19909;-70
2023/05/20 01:24:44;;;;;;;;;;;23.40;53.60;;;;;;5056011;28;19920;-72
2023/05/20 01:27:12;;;;;;;;;;;23.40;53.40;;;;;;5056016;28;19944;-70
2023/05/20 01:29:38;;;;;;;;;;;23.40;53.30;;;;;;5055764;28;19931;-70
2023/05/20 01:32:05;;;;;;;;;;;23.40;53.70;;;;;;5055930;28;20343;-70
2023/05/20 01:34:32;;;;;;;;;;;23.40;54.00;;;;;;5055747;28;19998;-71
2023/05/20 01:36:58;;;;;;;;;;;23.30;53.80;;;;;;5055594;28;19905;-71
2023/05/20 01:39:24;;;;;;;;;;;23.30;53.70;;;;;;5055851;28;19912;-71
2023/05/20 01:41:50;;;;;;;;;;;23.30;53.50;;;;;;5055747;28;19911;-71
2023/05/20 01:44:15;;;;;;;;;;;23.40;53.60;;;;;;5055452;28;20367;-71
2023/05/20 01:46:41;;;;;;;;;;;23.30;53.70;;;;;;5056039;28;19965;-71
2023/05/20 01:49:06;;;;;;;;;;;23.30;55.30;;;;;;5055739;28;19960;-71
2023/05/20 01:51:34;;;;;;;;;;;23.30;54.90;;;;;;5054235;28;19905;-71
2023/05/20 01:53:59;;;;;;;;;;;23.30;54.80;;;;;;5055800;28;19960;-71
2023/05/20 01:56:25;;;;;;;;;;;23.20;54.30;;;;;;5055691;28;19974;-71
2023/05/20 01:58:50;;;;;;;;;;;23.10;54.10;;;;;;5055332;28;20279;-71
2023/05/20 02:01:16;;;;;;;;;;;23.20;54.00;;;;;;5055844;28;19906;-71
2023/05/20 02:03:41;;;;;;;;;;;23.20;53.80;;;;;;5055106;28;19959;-71
2023/05/20 02:06:07;;;;;;;;;;;23.20;54.00;;;;;;5055313;28;20004;-71
2023/05/20 02:08:32;;;;;;;;;;;23.20;53.90;;;;;;5055290;28;20003;-71
2023/05/20 02:10:58;;;;;;;;;;;23.20;54.60;;;;;;5054804;28;20022;-71
2023/05/20 02:13:23;;;;;;;;;;;23.20;54.00;;;;;;5055076;28;19959;-71
2023/05/20 02:15:50;;;;;;;;;;;23.20;54.10;;;;;;5054871;28;19909;-71
2023/05/20 02:18:17;;;;;;;;;;;23.20;54.40;;;;;;5055103;28;19912;-71
2023/05/20 02:20:42;;;;;;;;;;;23.20;54.70;;;;;;5054990;28;19905;-71
2023/05/20 02:23:08;;;;;;;;;;;23.20;54.30;;;;;;5055169;28;19932;-71
2023/05/20 02:25:34;;;;;;;;;;;23.10;54.20;;;;;;5053957;28;19912;-71
2023/05/20 02:27:59;;;;;;;;;;;23.20;54.30;;;;;;5055185;28;19908;-71
2023/05/20 02:30:25;;;;;;;;;;;23.20;54.10;;;;;;5054796;28;19947;-71
2023/05/20 02:32:51;;;;;;;;;;;23.20;54.50;;;;;;5054804;28;19917;-71
2023/05/20 02:35:16;;;;;;;;;;;23.10;54.50;;;;;;5054664;28;20270;-71
2023/05/20 02:37:43;;;;;;;;;;;23.10;54.30;;;;;;5054955;28;20394;-71
2023/05/20 02:40:09;;;;;;;;;;;23.20;54.20;;;;;;5054535;28;19909;-71
2023/05/20 02:42:35;;;;;;;;;;;23.20;54.30;;;;;;5054422;28;19905;-71
2023/05/20 02:45:00;;;;;;;;;;;23.20;54.30;;;;;;5054565;28;19958;-71
2023/05/20 02:47:26;;;;;;;;;;;23.20;54.10;;;;;;5054632;28;19930;-71
2023/05/20 02:49:51;;;;;;;;;;;23.20;54.10;;;;;;5054206;28;19905;-72
2023/05/20 02:52:17;;;;;;;;;;;23.20;54.30;;;;;;5053225;28;20046;-70
2023/05/20 02:54:42;;;;;;;;;;;23.20;54.80;;;;;;5054344;28;19912;-70
2023/05/20 02:57:08;;;;;;;;;;;23.10;55.20;;;;;;5054315;28;19909;-70
2023/05/20 02:59:33;;;;;;;;;;;23.10;55.50;;;;;;5054603;28;20354;-71
2023/05/20 03:01:59;;;;;;;;;;;23.00;55.40;;;;;;5053053;28;19991;-70
2023/05/20 03:04:25;;;;;;;;;;;23.00;56.90;;;;;;5052922;28;19913;-71
2023/05/20 03:06:52;;;;;;;;;;;22.90;55.30;;;;;;5054357;28;19947;-71
2023/05/20 03:09:18;;;;;;;;;;;22.90;55.60;;;;;;5054672;28;19963;-70
2023/05/20 03:11:44;;;;;;;;;;;22.90;56.10;;;;;;5054370;28;19909;-70
2023/05/20 03:14:09;;;;;;;;;;;22.80;55.90;;;;;;5054247;28;19966;-70
2023/05/20 03:16:35;;;;;;;;;;;22.80;57.30;;;;;;5052936;28;19905;-70
2023/05/20 03:19:01;;;;;;;;;;;22.70;56.20;;;;;;5054085;28;19912;-70
2023/05/20 03:21:27;;;;;;;;;;;22.70;56.10;;;;;;5054371;28;19940;-70
2023/05/20 03:23:52;;;;;;;;;;;22.70;56.30;;;;;;5054048;28;19952;-70
2023/05/20 03:26:18;;;;;;;;;;;22.70;55.70;;;;;;5054387;28;19909;-70
2023/05/20 03:28:43;;;;;;;;;;;22.80;55.60;;;;;;5053742;28;19904;-70
2023/05/20 03:31:08;;;;;;;;;;;22.80;55.90;;;;;;5053822;28;19917;-70
2023/05/20 03:33:34;;;;;;;;;;;22.90;56.00;;;;;;5052673;28;19920;-70
2023/05/20 03:36:00;;;;;;;;;;;22.90;55.30;;;;;;5053914;28;19904;-70
2023/05/20 03:38:26;;;;;;;;;;;22.90;56.20;;;;;;5053917;28;19994;-70
2023/05/20 03:40:51;;;;;;;;;;;22.90;55.80;;;;;;5052679;28;19904;-70
2023/05/20 03:43:17;;;;;;;;;;;22.80;56.80;;;;;;5053738;28;19912;-70
2023/05/20 03:45:42;;;;;;;;;;;22.80;56.20;;;;;;5052799;28;19974;-70
2023/05/20 03:48:08;;;;;;;;;;;22.80;57.40;;;;;;5053562;28;20355;-70
2023/05/20 03:50:33;;;;;;;;;;;22.80;56.40;;;;;;5053763;28;19905;-70
2023/05/20 03:52:59;;;;;;;;;;;22.80;55.90;;;;;;5053907;28;20011;-70
2023/05/20 03:55:24;;;;;;;;;;;22.80;55.70;;;;;;5053687;28;19930;-70
2023/05/20 03:57:50;;;;;;;;;;;22.80;56.70;;;;;;5053756;28;19911;-70
2023/05/20 04:00:16;;;;;;;;;;;22.80;56.80;;;;;;5053699;28;19928;-70
2023/05/20 04:02:41;;;;;;;;;;;22.80;55.90;;;;;;5053843;28;19905;-71
2023/05/20 04:05:09;;;;;;;;;;;22.80;56.30;;;;;;5053675;28;19912;-71
2023/05/20 04:07:35;;;;;;;;;;;22.80;56.10;;;;;;5053569;28;20419;-71
2023/05/20 04:10:01;;;;;;;;;;;22.80;57.00;;;;;;5052327;28;20358;-71
2023/05/20 04:12:29;;;;;;;;;;;22.80;56.20;;;;;;5053829;28;19908;-71
2023/05/20 04:14:57;;;;;;;;;;;22.70;56.50;;;;;;5053400;28;19911;-71
2023/05/20 04:17:22;;;;;;;;;;;22.70;56.60;;;;;;5053539;28;19993;-70
2023/05/20 04:19:48;;;;;;;;;;;22.70;56.80;;;;;;5053847;28;19951;-70
2023/05/20 04:22:13;;;;;;;;;;;22.70;57.00;;;;;;5053526;28;19940;-70
2023/05/20 04:24:39;;;;;;;;;;;22.60;56.30;;;;;;5052497;28;19968;-71
2023/05/20 04:27:04;;;;;;;;;;;22.70;56.20;;;;;;5053463;28;19911;-70
2023/05/20 04:29:33;;;;;;;;;;;22.70;55.90;;;;;;5053241;28;20325;-70
2023/05/20 04:31:59;;;;;;;;;;;22.80;55.80;;;;;;5052658;28;19905;-71
2023/05/20 04:34:28;;;;;;;;;;;22.90;56.70;;;;;;5056016;28;19926;-70
2023/05/20 04:36:53;;;;;;;;;;;22.90;55.90;;;;;;5055749;28;19912;-70
2023/05/20 04:39:19;;;;;;;;;;;23.00;55.70;;;;;;5056789;28;19908;-70
2023/05/20 04:41:47;;;;;;;;;;;23.00;56.10;;;;;;5055868;28;20418;-71
2023/05/20 04:44:12;;;;;;;;;;;23.00;56.60;;;;;;5056461;28;19921;-70
2023/05/20 04:46:38;;;;;;;;;;;22.90;56.30;;;;;;5056979;28;20489;-71
2023/05/20 04:49:04;;;;;;;;;;;22.90;56.00;;;;;;5057007;28;19912;-71
2023/05/20 04:51:29;;;;;;;;;;;22.90;55.80;;;;;;5056892;28;19904;-71
2023/05/20 04:53:55;;;;;;;;;;;22.90;56.30;;;;;;5056593;28;19908;-70
2023/05/20 04:56:21;;;;;;;;;;;22.90;56.80;;;;;;5056388;28;19905;-70
2023/05/20 04:58:46;;;;;;;;;;;22.90;55.90;;;;;;5056619;28;20398;-70
2023/05/20 05:01:12;;;;;;;;;;;22.90;56.80;;;;;;5056246;28;19909;-71
2023/05/20 05:03:37;;;;;;;;;;;22.90;56.60;;;;;;5056286;28;19920;-70
2023/05/20 05:06:03;;;;;;;;;;;22.90;56.30;;;;;;5056592;28;19958;-70
2023/05/20 05:08:28;;;;;;;;;;;22.90;56.70;;;;;;5056305;28;19909;-70
2023/05/20 05:10:54;;;;;;;;;;;22.90;56.00;;;;;;5056327;28;19905;-70
2023/05/20 05:13:19;;;;;;;;;;;22.90;56.40;;;;;;5056435;28;19958;-71
2023/05/20 05:15:45;;;;;;;;;;;22.90;56.10;;;;;;5054933;28;19999;-72
2023/05/20 05:18:11;;;;;;;;;;;22.90;56.40;;;;;;5056043;28;20316;-70
2023/05/20 05:20:36;;;;;;;;;;;22.90;56.50;;;;;;5056354;28;20004;-70
2023/05/20 05:23:02;;;;;;;;;;;22.90;55.80;;;;;;5055744;28;19999;-70
2023/05/20 05:25:27;;;;;;;;;;;23.00;56.00;;;;;;5055944;28;19908;-71
2023/05/20 05:27:54;;;;;;;;;;;23.00;57.30;;;;;;5056119;28;19905;-71
2023/05/20 05:30:20;;;;;;;;;;;22.90;56.30;;;;;;5055736;28;19970;-71
2023/05/20 05:32:46;;;;;;;;;;;22.90;56.50;;;;;;5055638;28;20278;-71
2023/05/20 05:35:12;;;;;;;;;;;22.90;57.40;;;;;;5055828;28;19905;-71
2023/05/20 05:37:37;;;;;;;;;;;22.90;56.00;;;;;;5055750;28;19952;-71
2023/05/20 05:40:03;;;;;;;;;;;22.90;57.50;;;;;;5054501;28;19982;-70
2023/05/20 05:42:28;;;;;;;;;;;22.80;57.30;;;;;;5055618;28;20420;-70
2023/05/20 05:44:54;;;;;;;;;;;22.80;57.10;;;;;;5053122;28;19920;-71
2023/05/20 05:47:20;;;;;;;;;;;22.80;57.70;;;;;;5055669;28;19953;-70
2023/05/20 05:49:46;;;;;;;;;;;22.80;57.00;;;;;;5055480;28;19905;-70
2023/05/20 05:52:11;;;;;;;;;;;22.80;57.00;;;;;;5054200;28;19931;-70
2023/05/20 05:54:37;;;;;;;;;;;22.90;57.80;;;;;;5054113;28;20003;-70
2023/05/20 05:57:02;;;;;;;;;;;22.80;57.70;;;;;;5055204;28;19904;-70
2023/05/20 05:59:28;;;;;;;;;;;22.80;57.50;;;;;;5055111;28;19904;-71
2023/05/20 06:01:53;;;;;;;;;;;22.80;56.60;;;;;;5054222;28;19905;-70
2023/05/20 06:04:19;;;;;;;;;;;22.90;57.70;;;;;;5054070;28;20274;-70
2023/05/20 06:06:44;;;;;;;;;;;22.90;56.80;;;;;;5055326;28;19905;-70
2023/05/20 06:09:10;;;;;;;;;;;22.90;57.70;;;;;;5055741;28;19905;-70
2023/05/20 06:11:35;;;;;;;;;;;22.90;57.40;;;;;;5055180;28;19952;-71
2023/05/20 06:14:01;;;;;;;;;;;22.90;58.20;;;;;;5054708;28;19905;-70
2023/05/20 06:16:27;;;;;;;;;;;22.90;56.90;;;;;;5055123;28;19995;-71
2023/05/20 06:18:55;;;;;;;;;;;23.00;56.70;;;;;;5054923;28;19911;-71
2023/05/20 06:21:22;;;;;;;;;;;23.00;56.50;;;;;;5054640;28;20268;-71
2023/05/20 06:23:47;;;;;;;;;;;23.10;56.90;;;;;;5054671;28;19939;-71
2023/05/20 06:26:13;;;;;;;;;;;23.20;56.50;;;;;;5054961;28;19904;-71
2023/05/20 06:28:38;;;;;;;;;;;23.20;56.50;;;;;;5054362;28;19963;-71
2023/05/20 06:31:05;;;;;;;;;;;23.20;56.10;;;;;;5054754;28;19912;-70
2023/05/20 06:33:30;;;;;;;;;;;23.30;56.80;;;;;;5054787;28;19943;-70
2023/05/20 06:35:56;;;;;;;;;;;23.30;56.20;;;;;;5054698;28;19905;-71
2023/05/20 06:38:21;;;;;;;;;;;23.40;56.30;;;;;;5053130;28;19905;-71
2023/05/20 06:40:47;;;;;;;;;;;23.50;57.10;;;;;;5053185;28;20242;-71
2023/05/20 06:43:13;;;;;;;;;;;23.50;56.10;;;;;;5054461;28;19966;-71
2023/05/20 06:45:39;;;;;;;;;;;23.40;56.10;;;;;;5054437;28;19936;-71
2023/05/20 06:48:04;;;;;;;;;;;23.50;55.80;;;;;;5054222;28;19927;-71
2023/05/20 06:50:30;;;;;;;;;;;23.50;56.10;;;;;;5054187;28;19904;-71
2023/05/20 06:52:55;;;;;;;;;;;23.50;55.90;;;;;;5052745;28;20030;-71
2023/05/20 06:55:21;;;;;;;;;;;23.50;56.40;;;;;;5054034;28;19958;-71
2023/05/20 06:57:46;;;;;;;;;;;23.50;55.80;;;;;;5053465;28;20343;-71
2023/05/20 07:00:12;;;;;;;;;;;23.60;55.80;;;;;;5054158;28;20351;-71
2023/05/20 07:02:38;;;;;;;;;;;23.60;55.60;;;;;;5053992;28;19991;-71
2023/05/20 07:05:04;;;;;;;;;;;23.60;55.60;;;;;;5052770;28;19962;-71
2023/05/20 07:07:29;;;;;;;;;;;23.70;55.90;;;;;;5054019;28;19905;-71
2023/05/20 07:09:56;;;;;;;;;;;23.70;55.50;;;;;;5054217;28;19905;-71
2023/05/20 07:12:21;;;;;;;;;;;23.70;55.50;;;;;;5053891;28;19905;-71
2023/05/20 07:14:47;;;;;;;;;;;23.80;55.50;;;;;;5053858;28;20019;-71
2023/05/20 07:17:12;;;;;;;;;;;23.70;55.80;;;;;;5052722;28;19908;-71
2023/05/20 07:19:38;;;;;;;;;;;23.80;55.60;;;;;;5054348;28;19958;-71
2023/05/20 07:22:03;;;;;;;;;;;23.80;55.50;;;;;;5053868;28;20282;-71
2023/05/20 07:24:29;;;;;;;;;;;23.80;55.40;;;;;;5054034;28;19917;-71
2023/05/20 07:26:55;;;;;;;;;;;23.80;55.60;;;;;;5053659;28;19905;-71
2023/05/20 07:29:20;;;;;;;;;;;23.90;55.50;;;;;;5054073;28;20299;-71
2023/05/20 07:31:46;;;;;;;;;;;23.90;55.30;;;;;;5053596;28;20045;-71
2023/05/20 07:34:11;;;;;;;;;;;23.90;55.50;;;;;;5053584;28;19988;-70
2023/05/20 07:36:37;;;;;;;;;;;23.90;55.10;;;;;;5053855;28;19991;-71
2023/05/20 07:39:02;;;;;;;;;;;23.90;55.10;;;;;;5053828;28;20265;-71
2023/05/20 07:41:28;;;;;;;;;;;24.00;55.20;;;;;;5053394;28;19905;-71
2023/05/20 07:43:53;;;;;;;;;;;24.00;55.10;;;;;;5053793;28;19913;-71
2023/05/20 07:46:20;;;;;;;;;;;24.00;56.00;;;;;;5052685;28;19905;-71
2023/05/20 07:48:45;;;;;;;;;;;23.90;55.80;;;;;;5053706;28;19955;-71
2023/05/20 07:51:11;;;;;;;;;;;23.90;55.50;;;;;;5053652;28;19905;-72
2023/05/20 07:53:36;;;;;;;;;;;24.00;55.40;;;;;;5053300;28;19944;-71
2023/05/20 07:56:02;;;;;;;;;;;24.00;55.20;;;;;;5052048;28;20270;-70
2023/05/20 07:58:28;;;;;;;;;;;24.00;55.40;;;;;;5052811;28;19905;-70
2023/05/20 08:00:54;;;;;;;;;;;24.00;55.30;;;;;;5053865;28;20392;-70
2023/05/20 08:03:21;;;;;;;;;;;24.00;55.50;;;;;;5052078;28;19913;-71
2023/05/20 08:05:46;;;;;;;;;;;24.10;55.60;;;;;;5053352;28;19905;-70
2023/05/20 08:08:12;;;;;;;;;;;24.10;55.10;;;;;;5053691;28;19912;-70
2023/05/20 08:10:37;;;;;;;;;;;24.10;55.20;;;;;;5057312;28;19905;-70
2023/05/20 08:13:03;;;;;;;;;;;24.10;55.40;;;;;;5057356;28;19911;-69
2023/05/20 08:15:28;;;;;;;;;;;24.10;56.40;;;;;;5055779;28;19959;-70
2023/05/20 08:17:54;;;;;;;;;;;24.10;55.40;;;;;;5055825;28;19908;-71
2023/05/20 08:20:19;;;;;;;;;;;24.00;56.00;;;;;;5057019;28;19904;-70
2023/05/20 08:22:46;;;;;;;;;;;24.00;55.80;;;;;;5057012;28;20372;-71
2023/05/20 08:25:11;;;;;;;;;;;24.00;55.90;;;;;;5055548;28;20251;-71
2023/05/20 08:27:37;;;;;;;;;;;24.00;55.70;;;;;;5057474;28;19959;-72
2023/05/20 08:30:03;;;;;;;;;;;24.00;56.00;;;;;;5056777;28;20406;-71
2023/05/20 08:32:30;;;;;;;;;;;24.00;56.30;;;;;;5056883;28;19924;-72
2023/05/20 08:34:56;;;;;;;;;;;24.00;56.50;;;;;;5057043;28;20011;-71
2023/05/20 08:37:21;;;;;;;;;;;23.90;56.40;;;;;;5055323;28;20378;-71
2023/05/20 08:39:48;;;;;;;;;;;23.90;56.80;;;;;;5056620;28;19920;-72
2023/05/20 08:42:15;;;;;;;;;;;24.00;56.30;;;;;;5055834;28;19908;-71
2023/05/20 08:44:41;;;;;;;;;;;24.00;56.80;;;;;;5055571;28;19956;-70
2023/05/20 08:47:07;;;;;;;;;;;24.00;56.10;;;;;;5056594;28;19939;-72
2023/05/20 08:49:33;;;;;;;;;;;24.00;56.10;;;;;;5056507;28;19905;-70
2023/05/20 08:52:00;;;;;;;;;;;24.00;56.70;;;;;;5056258;28;19951;-70
2023/05/20 08:54:30;;;;;;;;;;;24.10;55.70;;;;;;5056193;28;20339;-70
2023/05/20 08:56:55;;;;;;;;;;;24.10;55.60;;;;;;5056678;28;19931;-71
2023/05/20 08:59:22;;;;;;;;;;;24.10;55.50;;;;;;5056521;28;19905;-69
2023/05/20 09:01:47;;;;;;;;;;;24.20;55.40;;;;;;5056533;28;20266;-70
2023/05/20 09:04:13;;;;;;;;;;;24.20;55.30;;;;;;5055838;28;19909;-70
2023/05/20 09:06:42;;;;;;;;;;;24.20;55.10;;;;;;5056023;28;19999;-70
2023/05/20 09:09:09;;;;;;;;;;;24.30;55.50;;;;;;5056180;28;19959;-70
2023/05/20 09:11:35;;;;;;;;;;;24.30;54.90;;;;;;5056321;28;19905;-70
2023/05/20 09:14:00;;;;;;;;;;;24.40;55.00;;;;;;5056188;28;19927;-70
2023/05/20 09:16:26;;;;;;;;;;;24.40;55.00;;;;;;5056480;28;19960;-70
2023/05/20 09:18:54;;;;;;;;;;;24.40;54.70;;;;;;5056014;28;19905;-71
2023/05/20 09:21:24;;;;;;;;;;;24.40;54.60;;;;;;5055882;28;20358;-71
2023/05/20 09:23:52;;;;;;;;;;;24.40;54.30;;;;;;5055095;28;19991;-70
2023/05/20 09:26:18;;;;;;;;;;;24.50;54.20;;;;;;5055929;28;19912;-70
2023/05/20 09:28:44;;;;;;;;;;;24.50;54.10;;;;;;5056098;28;20008;-71
2023/05/20 09:31:12;;;;;;;;;;;24.60;54.10;;;;;;5055915;28;19916;-71
2023/05/20 09:33:38;;;;;;;;;;;24.60;54.00;;;;;;5054415;28;20394;-71
2023/05/20 09:36:04;;;;;;;;;;;24.60;53.80;;;;;;5056072;28;19908;-71
2023/05/20 09:38:36;;;;;;;;;;;24.70;53.80;;;;;;5055920;28;20370;-72
2023/05/20 09:41:06;;;;;;;;;;;24.70;53.80;;;;;;5055831;28;19911;-70
2023/05/20 09:43:32;;;;;;;;;;;24.70;53.80;;;;;;5054251;28;20282;-71
2023/05/20 09:45:59;;;;;;;;;;;24.70;53.60;;;;;;5055863;28;19904;-71
2023/05/20 09:48:25;;;;;;;;;;;24.80;53.50;;;;;;5055287;28;19905;-70
2023/05/20 09:50:51;;;;;;;;;;;24.80;53.40;;;;;;5055495;28;19928;-70
2023/05/20 09:53:17;;;;;;;;;;;24.80;53.30;;;;;;5055674;28;19912;-71
2023/05/20 09:55:43;;;;;;;;;;;24.90;53.90;;;;;;5055531;28;19905;-70
2023/05/20 09:58:08;;;;;;;;;;;24.90;53.20;;;;;;5053927;28;19905;-72
2023/05/20 10:00:34;;;;;;;;;;;24.90;53.10;;;;;;5054921;28;19958;-70
2023/05/20 10:03:00;;;;;;;;;;;25.00;53.00;;;;;;5055117;28;19905;-71
2023/05/20 10:05:26;;;;;;;;;;;25.00;52.80;;;;;;5055078;28;19978;-71
2023/05/20 10:07:51;;;;;;;;;;;25.00;52.80;;;;;;5055226;28;20329;-71
2023/05/20 10:10:43;;;;;;;;;;;25.00;52.50;;;;;;5055323;28;19905;-71
2023/05/20 10:13:25;;;;;;;;;;;25.00;52.60;;;;;;5053827;28;19908;-72
2023/05/20 10:15:53;;;;;;;;;;;25.10;52.50;;;;;;5055035;28;19904;-71
2023/05/20 10:18:19;;;;;;;;;;;25.00;52.30;;;;;;5054820;28;19915;-71
2023/05/20 10:20:45;;;;;;;;;;;25.10;52.40;;;;;;5054660;28;19905;-70
2023/05/20 10:23:19;;;;;;;;;;;25.10;52.50;;;;;;5053374;28;20273;-70
2023/05/20 10:25:54;;;;;;;;;;;25.10;52.20;;;;;;5053683;28;20283;-70
2023/05/20 10:28:35;;;;;;;;;;;25.10;52.30;;;;;;5053414;28;19909;-70
2023/05/20 10:31:00;;;;;;;;;;;25.10;52.10;;;;;;5053941;28;19920;-71
2023/05/20 10:33:29;;;;;;;;;;;25.10;52.00;;;;;;5054593;28;19917;-70
2023/05/20 10:35:58;;;;;;;;;;;25.20;51.80;;;;;;5054604;28;19904;-70
2023/05/20 10:38:24;;;;;;;;;;;25.10;51.80;;;;;;5054576;28;19905;-70
2023/05/20 10:40:49;;;;;;;;;;;25.20;51.80;;;;;;5054521;28;20426;-70
2023/05/20 10:43:17;;;;;;;;;;;25.20;51.80;;;;;;5054349;28;19908;-71
2023/05/20 10:45:47;;;;;;;;;;;25.20;51.60;;;;;;5054349;28;20266;-70
2023/05/20 10:48:19;;;;;;;;;;;25.30;51.60;;;;;;5054196;28;20352;-70
2023/05/20 10:50:45;;;;;;;;;;;25.30;51.00;;;;;;5054341;28;19968;-70
2023/05/20 10:53:11;;;;;;;;;;;25.30;52.00;;;;;;5054054;28;19909;-70
2023/05/20 10:55:37;;;;;;;;;;;25.30;51.40;;;;;;5054475;28;19904;-70
2023/05/20 10:58:04;;;;;;;;;;;25.30;51.40;;;;;;5054305;28;20354;-70
2023/05/20 11:00:30;;;;;;;;;;;25.30;51.40;;;;;;5052814;28;19954;-71
2023/05/20 11:02:56;;;;;;;;;;;25.30;51.20;;;;;;5053826;28;19905;-71
2023/05/20 11:05:21;;;;;;;;;;;25.30;51.30;;;;;;5052846;28;19915;-71
2023/05/20 11:07:47;;;;;;;;;;;25.30;50.90;;;;;;5054147;28;19904;-71
2023/05/20 11:10:13;;;;;;;;;;;25.40;51.10;;;;;;5054065;28;19904;-72
2023/05/20 11:12:38;;;;;;;;;;;25.40;51.00;;;;;;5053812;28;20386;-71
2023/05/20 11:15:04;;;;;;;;;;;25.40;50.70;;;;;;5053931;28;19912;-71
2023/05/20 11:17:30;;;;;;;;;;;25.50;50.90;;;;;;5053838;28;19905;-71
2023/05/20 11:19:55;;;;;;;;;;;25.50;50.70;;;;;;5053885;28;19905;-71
2023/05/20 11:22:21;;;;;;;;;;;25.50;50.60;;;;;;5053623;28;19904;-70
2023/05/20 11:24:47;;;;;;;;;;;25.50;50.50;;;;;;5052818;28;19916;-70
2023/05/20 11:27:12;;;;;;;;;;;25.40;49.80;;;;;;5053976;28;19944;-70
2023/05/20 11:29:38;;;;;;;;;;;25.40;49.80;;;;;;5054007;28;19913;-71
2023/05/20 11:32:04;;;;;;;;;;;25.40;50.40;;;;;;5053497;28;20275;-71
2023/05/20 11:34:34;;;;;;;;;;;25.50;50.50;;;;;;5053976;28;19905;-70
2023/05/20 11:36:59;;;;;;;;;;;25.50;50.30;;;;;;5053884;28;19909;-71
2023/05/20 11:39:28;;;;;;;;;;;25.50;50.10;;;;;;5053811;28;19911;-71
2023/05/20 11:41:53;;;;;;;;;;;25.50;50.30;;;;;;5054073;28;19988;-71
2023/05/20 11:44:19;;;;;;;;;;;25.50;50.00;;;;;;5057566;28;19916;-71
2023/05/20 11:46:45;;;;;;;;;;;25.50;49.80;;;;;;5057974;28;20302;-71
2023/05/20 11:49:14;;;;;;;;;;;25.50;49.50;;;;;;5057631;28;20366;-71
2023/05/20 11:51:40;;;;;;;;;;;25.50;49.80;;;;;;5056369;28;19908;-72
2023/05/20 11:54:06;;;;;;;;;;;25.60;49.80;;;;;;5057529;28;19916;-71
2023/05/20 11:56:38;;;;;;;;;;;25.60;49.70;;;;;;5057718;28;19904;-71
2023/05/20 11:59:04;;;;;;;;;;;25.60;49.50;;;;;;5056333;28;19912;-69
2023/05/20 12:01:32;;;;;;;;;;;25.70;48.80;;;;;;5057649;28;19915;-72
2023/05/20 12:03:58;;;;;;;;;;;25.60;49.30;;;;;;5057182;28;19916;-71
2023/05/20 12:06:23;;;;;;;;;;;25.70;48.40;;;;;;5057489;28;19913;-71
2023/05/20 12:08:49;;;;;;;;;;;25.70;49.20;;;;;;5057544;28;19916;-70
2023/05/20 12:11:14;;;;;;;;;;;25.80;49.20;;;;;;5057542;28;19904;-71
2023/05/20 12:13:40;;;;;;;;;;;25.80;48.90;;;;;;5057426;28;19911;-71
2023/05/20 12:16:05;;;;;;;;;;;25.90;49.10;;;;;;5057436;28;19912;-70
2023/05/20 12:18:31;;;;;;;;;;;26.00;49.00;;;;;;5055782;28;19911;-70
2023/05/20 12:21:00;;;;;;;;;;;26.00;48.70;;;;;;5056952;28;20366;-72
2023/05/20 12:23:25;;;;;;;;;;;26.00;48.50;;;;;;5057073;28;19915;-71
2023/05/20 12:25:51;;;;;;;;;;;26.00;48.30;;;;;;5056899;28;19908;-70
2023/05/20 12:28:16;;;;;;;;;;;26.10;48.40;;;;;;5057112;28;19908;-70
2023/05/20 12:30:42;;;;;;;;;;;26.10;48.40;;;;;;5056658;28;19917;-71
2023/05/20 12:33:08;;;;;;;;;;;26.20;48.40;;;;;;5056480;28;20033;-71
2023/05/20 12:35:37;;;;;;;;;;;26.20;48.10;;;;;;5056824;28;19995;-72
2023/05/20 12:38:03;;;;;;;;;;;26.30;47.80;;;;;;5056845;28;19919;-70
2023/05/20 12:40:29;;;;;;;;;;;26.40;48.10;;;;;;5055414;28;19908;-71
2023/05/20 12:42:54;;;;;;;;;;;26.40;47.60;;;;;;5056405;28;19912;-71
2023/05/20 12:45:20;;;;;;;;;;;26.50;47.70;;;;;;5056263;28;19962;-70
2023/05/20 12:47:45;;;;;;;;;;;26.60;46.40;;;;;;5056531;28;19905;-71
2023/05/20 12:50:11;;;;;;;;;;;26.70;47.50;;;;;;5056606;28;19953;-71
2023/05/20 12:52:36;;;;;;;;;;;26.80;47.60;;;;;;5056573;28;19909;-71
2023/05/20 12:55:04;;;;;;;;;;;26.80;47.20;;;;;;5055690;28;19904;-71
2023/05/20 12:57:30;;;;;;;;;;;26.90;47.30;;;;;;5056248;28;19909;-71
2023/05/20 12:59:55;;;;;;;;;;;27.00;47.10;;;;;;5056360;28;19905;-71
2023/05/20 13:02:21;;;;;;;;;;;27.10;46.80;;;;;;5056319;28;20308;-71
2023/05/20 13:04:46;;;;;;;;;;;27.20;46.80;;;;;;5056104;28;19978;-70
2023/05/20 13:07:12;;;;;;;;;;;27.30;46.70;;;;;;5054846;28;19909;-70
2023/05/20 13:09:37;;;;;;;;;;;27.40;46.70;;;;;;5056172;28;19905;-71
2023/05/20 13:12:03;;;;;;;;;;;27.40;46.00;;;;;;5056259;28;20264;-71
2023/05/20 13:14:28;;;;;;;;;;;27.50;45.90;;;;;;5056259;28;19909;-71
2023/05/20 13:16:55;;;;;;;;;;;27.60;45.40;;;;;;5055852;28;19920;-71
2023/05/20 13:19:21;;;;;;;;;;;27.70;45.50;;;;;;5056077;28;20350;-71
2023/05/20 13:21:47;;;;;;;;;;;27.80;45.50;;;;;;5056239;28;19909;-71
2023/05/20 13:24:13;;;;;;;;;;;27.90;45.60;;;;;;5055830;28;19939;-71
2023/05/20 13:26:38;;;;;;;;;;;28.10;45.30;;;;;;5055762;28;19920;-72
2023/05/20 13:29:04;;;;;;;;;;;28.50;44.70;;;;;;5054516;28;19908;-71
2023/05/20 13:31:30;;;;;;;;;;;28.80;45.20;;;;;;5055826;28;20416;-71
2023/05/20 13:33:57;;;;;;;;;;;29.20;43.60;;;;;;5056526;28;19917;-71
2023/05/20 13:36:23;;;;;;;;;;;29.70;45.40;;;;;;5055783;28;19951;-71
2023/05/20 13:38:49;;;;;;;;;;;30.20;45.50;;;;;;5055594;28;19974;-71
2023/05/20 13:41:14;;;;;;;;;;;30.80;44.10;;;;;;5055700;28;19911;-71
2023/05/20 13:43:41;;;;;;;;;;;31.30;43.40;;;;;;5055391;28;19909;-71
2023/05/20 13:46:06;;;;;;;;;;;31.80;44.50;;;;;;5054171;28;19927;-71
2023/05/20 13:48:32;;;;;;;;;;;32.30;42.30;;;;;;5055174;28;20322;-72
2023/05/20 13:50:57;;;;;;;;;;;32.80;42.40;;;;;;5055395;28;19983;-71
2023/05/20 13:53:23;;;;;;;;;;;33.20;40.80;;;;;;5055600;28;19904;-71
2023/05/20 13:55:48;;;;;;;;;;;33.60;41.60;;;;;;5053863;28;20274;-71
2023/05/20 13:58:14;;;;;;;;;;;33.90;40.10;;;;;;5055059;28;19904;-71
2023/05/20 14:00:40;;;;;;;;;;;34.00;40.00;;;;;;5055134;28;20327;-71
2023/05/20 14:03:07;;;;;;;;;;;33.90;38.40;;;;;;5055051;28;19904;-71
2023/05/20 14:05:33;;;;;;;;;;;33.90;41.30;;;;;;5053105;28;20007;-71
2023/05/20 14:07:59;;;;;;;;;;;33.80;38.40;;;;;;5054507;28;20353;-71
2023/05/20 14:10:25;;;;;;;;;;;33.80;39.60;;;;;;5054771;28;19919;-71